Time;durP1;ratioP1;P1;durP2;ratioP2;P2;SDS_P1;SDS_P2;PMS_P1;PMS_P2;Temp;Humidity;BMP_temperature;BMP_pressure;BME280_temperature;BME280_humidity;BME280_pressure;Samples;Min_cycle;Max_cycle;Signal;HPM_P1;HPM_P2
2021/12/14 00:02:23;;;;;;;18.58;14.43;;;;;;;2.47;85.83;100661.66;4943000;29;20215;-78
2021/12/14 00:04:49;;;;;;;17.40;13.60;;;;;;;2.43;85.67;100657.38;4945853;29;20233;-77
2021/12/14 00:07:16;;;;;;;21.75;14.63;;;;;;;2.41;85.82;100656.56;4945056;29;20325;-79
2021/12/14 00:09:43;;;;;;;13.45;11.50;;;;;;;2.38;85.55;100648.81;5056991;23;20260;-86
2021/12/14 00:12:41;;;;;;;18.45;14.05;;;;;;;2.36;85.73;100650.56;4956421;28;20278;-86
2021/12/14 00:15:13;;;;;;;17.60;12.57;;;;;;;2.35;85.90;100649.72;4957088;28;20733;-86
2021/12/14 00:17:45;;;;;;;17.45;13.13;;;;;;;2.36;85.80;100659.19;4949900;28;20213;-87
2021/12/14 00:20:30;;;;;;;18.90;13.40;;;;;;;2.36;85.46;100656.59;4948578;28;20481;-86
2021/12/14 00:25:35;;;;;;;16.65;12.77;;;;;;;2.36;85.77;100648.81;4952526;28;20224;-87
2021/12/14 00:28:05;;;;;;;19.30;14.13;;;;;;;2.35;85.75;100656.63;4955478;28;20623;-86
2021/12/14 00:30:33;;;;;;;21.08;13.15;;;;;;;2.37;85.65;100660.91;4951946;28;20490;-87
2021/12/14 00:32:59;;;;;;;22.10;15.35;;;;;;;2.36;85.97;100661.78;4954348;28;20232;-87
2021/12/14 00:35:25;;;;;;;20.87;13.20;;;;;;;2.37;85.71;100658.31;4951600;28;20243;-87
2021/12/14 00:37:54;;;;;;;20.02;14.98;;;;;;;2.40;85.88;100654.81;4952953;28;21013;-87
2021/12/14 00:40:22;;;;;;;17.48;13.32;;;;;;;2.40;86.31;100665.19;4942679;28;20981;-87
2021/12/14 00:42:49;;;;;;;20.10;12.80;;;;;;;2.39;86.02;100666.94;4943368;28;20212;-87
2021/12/14 00:45:17;;;;;;;20.10;14.32;;;;;;;2.41;86.38;100665.19;4957152;28;20297;-88
2021/12/14 00:47:43;;;;;;;17.58;14.00;;;;;;;2.42;86.31;100661.69;4937441;28;20207;-87
2021/12/14 00:50:10;;;;;;;24.23;13.73;;;;;;;2.45;86.05;100655.63;4949774;28;20223;-88
2021/12/14 00:52:36;;;;;;;20.30;14.23;;;;;;;2.49;86.30;100656.47;4953263;28;20558;-87
2021/12/14 00:55:06;;;;;;;19.30;13.77;;;;;;;2.50;86.19;100659.00;4943330;28;20212;-87
2021/12/14 00:57:36;;;;;;;21.23;15.70;;;;;;;2.53;86.25;100660.72;4952318;28;20390;-87
2021/12/14 01:00:10;;;;;;;23.40;14.82;;;;;;;2.55;86.26;100662.41;4940239;28;20297;-87
2021/12/14 01:02:36;;;;;;;24.55;17.73;;;;;;;2.76;86.36;100647.44;4939942;28;20480;-88
2021/12/14 01:05:10;;;;;;;25.70;17.42;;;;;;;2.74;86.55;100654.38;4940418;28;20233;-87
2021/12/14 01:07:36;;;;;;;22.60;15.27;;;;;;;2.72;86.13;100654.38;4933270;28;20232;-87
2021/12/14 01:10:11;;;;;;;19.40;14.43;;;;;;;2.69;86.80;100664.78;4928689;29;20263;-86
2021/12/14 01:12:45;;;;;;;26.75;16.83;;;;;;;2.66;86.91;100668.28;4924917;29;20294;-86
2021/12/14 01:16:00;;;;;;;20.63;13.70;;;;;;;2.64;87.02;100682.16;4937809;29;20725;-86
2021/12/14 01:21:42;;;;;;;22.60;16.73;;;;;;;2.63;86.73;100688.25;4939444;29;20219;-86
2021/12/14 01:24:24;;;;;;;19.10;13.88;;;;;;;2.66;87.02;100681.25;4933987;29;20224;-86
2021/12/14 01:26:51;;;;;;;28.85;15.32;;;;;;;2.68;86.77;100688.19;4932577;29;20243;-86
2021/12/14 01:29:18;;;;;;;27.67;15.77;;;;;;;2.62;87.24;100689.97;4931264;29;20283;-87
2021/12/14 01:31:48;;;;;;;21.75;14.88;;;;;;;2.59;86.95;100694.34;4923046;29;20208;-86
2021/12/14 01:34:19;;;;;;;39.47;16.50;;;;;;;2.58;87.33;100684.84;4927716;29;20232;-86
2021/12/14 01:36:51;;;;;;;54.63;16.92;;;;;;;2.59;87.23;100690.03;4936979;29;20212;-87
2021/12/14 01:39:49;;;;;;;24.90;16.30;;;;;;;2.60;87.35;100688.28;4918006;29;20201;-88
2021/12/14 01:42:19;;;;;;;28.15;15.82;;;;;;;2.63;87.27;100688.25;4937741;29;20786;-86
2021/12/14 01:44:50;;;;;;;67.25;19.63;;;;;;;2.66;87.02;100695.97;4940228;29;20237;-87
2021/12/14 01:47:34;;;;;;;64.93;19.20;;;;;;;2.69;87.22;100695.94;4923804;29;20303;-88
2021/12/14 01:50:40;;;;;;;39.85;18.40;;;;;;;2.69;87.35;100695.94;4935338;29;20205;-87
2021/12/14 01:53:15;;;;;;;27.98;14.40;;;;;;;2.69;87.34;100693.34;4930543;29;20260;-86
2021/12/14 01:55:50;;;;;;;71.30;19.50;;;;;;;2.72;87.52;100700.22;4940398;29;20228;-86
2021/12/14 01:58:17;;;;;;;56.25;18.92;;;;;;;2.72;87.41;100695.88;4915440;29;20316;-87
2021/12/14 02:00:54;;;;;;;61.30;18.35;;;;;;;2.71;87.85;100698.50;4940806;29;20224;-87
2021/12/14 02:03:27;;;;;;;48.20;15.80;;;;;;;2.71;87.75;100701.97;4936676;29;20229;-86
2021/12/14 02:05:53;;;;;;;28.52;14.43;;;;;;;2.73;87.91;100702.81;4928331;29;20264;-87
2021/12/14 02:08:26;;;;;;;27.90;13.93;;;;;;;2.72;87.95;100708.84;4927119;29;20707;-87
2021/12/14 02:10:56;;;;;;;23.98;13.43;;;;;;;2.71;88.37;100701.09;4941297;29;20706;-86
2021/12/14 02:13:34;;;;;;;22.13;13.98;;;;;;;2.70;88.51;100694.19;4931253;29;20264;-86
2021/12/14 02:16:02;;;;;;;18.60;15.00;;;;;;;2.70;88.41;100695.06;4931068;29;20265;-86
2021/12/14 02:18:29;;;;;;;19.90;14.00;;;;;;;2.70;88.56;100707.16;4932962;29;20451;-86
2021/12/14 02:20:59;;;;;;;23.20;13.95;;;;;;;2.70;88.73;100702.84;4924050;29;20201;-87
2021/12/14 02:23:26;;;;;;;18.58;12.30;;;;;;;2.69;88.85;100695.94;4911991;29;20263;-87
2021/12/14 02:25:53;;;;;;;15.70;12.95;;;;;;;2.71;88.56;100691.59;4938950;29;20211;-87
2021/12/14 02:28:21;;;;;;;31.58;14.23;;;;;;;2.72;88.40;100690.69;4933737;29;20216;-87
2021/12/14 02:30:51;;;;;;;21.17;12.80;;;;;;;2.76;88.56;100691.53;4923871;29;20215;-87
2021/12/14 02:33:24;;;;;;;19.55;12.27;;;;;;;2.75;88.91;100682.88;4922600;29;20302;-88
2021/12/14 02:35:52;;;;;;;16.00;12.13;;;;;;;2.77;88.69;100682.84;4948989;29;21043;-87
2021/12/14 02:38:21;;;;;;;22.23;11.15;;;;;;;2.77;88.91;100681.09;4938671;29;20209;-87
2021/12/14 02:41:01;;;;;;;28.60;12.10;;;;;;;2.78;88.72;100677.66;4931306;29;20205;-86
2021/12/14 02:43:35;;;;;;;39.22;11.90;;;;;;;2.82;88.66;100668.06;4932580;29;20300;-86
2021/12/14 02:46:13;;;;;;;40.00;13.35;;;;;;;2.83;88.63;100668.03;4939357;29;20307;-86
2021/12/14 02:48:42;;;;;;;30.30;11.65;;;;;;;2.84;88.62;100667.19;4923167;29;20240;-87
2021/12/14 02:51:16;;;;;;;16.60;10.23;;;;;;;2.86;88.91;100662.84;4932302;29;20213;-87
2021/12/14 02:53:43;;;;;;;42.53;12.40;;;;;;;2.88;88.64;100657.59;4938816;29;20667;-86
2021/12/14 02:56:24;;;;;;;21.40;8.52;;;;;;;2.86;88.84;100651.56;4916767;29;20201;-86
2021/12/14 02:58:56;;;;;;;21.98;11.32;;;;;;;2.84;89.11;100661.13;4940524;29;20208;-86
2021/12/14 03:01:26;;;;;;;19.08;13.32;;;;;;;2.88;89.30;100661.03;4948022;28;20493;-86
2021/12/14 03:03:52;;;;;;;15.18;11.32;;;;;;;2.85;89.30;100655.91;4957077;29;20225;-85
2021/12/14 03:06:23;;;;;;;19.67;11.52;;;;;;;2.83;89.06;100656.81;4950208;29;20663;-88
2021/12/14 03:09:07;;;;;;;15.55;10.45;;;;;;;2.83;89.21;100647.28;4947817;29;20257;-88
2021/12/14 03:11:34;;;;;;;11.10;7.60;;;;;;;2.83;89.69;100647.28;4959722;29;20288;-87
2021/12/14 03:14:00;;;;;;;15.25;6.68;;;;;;;2.83;89.22;100646.44;4962691;28;20280;-88
2021/12/14 03:16:33;;;;;;;9.47;5.87;;;;;;;2.84;89.75;100666.31;4942934;29;20233;-88
2021/12/14 03:19:00;;;;;;;144.70;22.08;;;;;;;2.80;89.64;100672.44;4938526;29;20267;-88
2021/12/14 03:21:38;;;;;;;80.30;13.65;;;;;;;2.72;89.85;100663.91;4935909;29;20209;-86
2021/12/14 03:24:11;;;;;;;70.57;16.05;;;;;;;2.71;89.43;100667.38;4938530;29;20216;-87
2021/12/14 03:26:41;;;;;;;10.02;6.03;;;;;;;2.72;89.90;100677.72;4923318;29;20213;-87
2021/12/14 03:29:11;;;;;;;88.82;14.07;;;;;;;2.75;89.74;100676.81;4933559;29;20217;-86
2021/12/14 03:31:43;;;;;;;43.92;11.13;;;;;;;2.83;90.25;100668.03;4927922;29;20874;-87
2021/12/14 03:34:23;;;;;;;87.43;13.80;;;;;;;2.82;89.66;100679.31;4929192;29;20208;-87
2021/12/14 03:36:53;;;;;;;91.18;15.07;;;;;;;2.81;89.88;100687.13;4942360;29;20591;-88
2021/12/14 03:39:19;;;;;;;63.92;11.02;;;;;;;2.79;89.87;100694.94;4919693;29;20264;-87
2021/12/14 03:41:51;;;;;;;72.35;11.07;;;;;;;2.76;89.77;100687.19;4919738;29;20709;-87
2021/12/14 03:44:23;;;;;;;49.88;8.60;;;;;;;2.73;90.06;100695.03;4941189;29;20789;-87
2021/12/14 03:46:57;;;;;;;74.47;13.00;;;;;;;2.69;89.99;100703.72;4926857;29;20682;-87
2021/12/14 03:49:29;;;;;;;71.68;12.65;;;;;;;2.68;89.94;100708.94;4927563;29;20322;-87
2021/12/14 03:51:57;;;;;;;35.70;7.55;;;;;;;2.66;89.97;100711.53;4926598;29;20220;-87
2021/12/14 03:54:24;;;;;;;6.88;4.85;;;;;;;2.67;89.97;100718.44;4925358;29;20201;-87
2021/12/14 03:56:51;;;;;;;5.55;4.55;;;;;;;2.69;90.08;100731.41;4925203;29;20591;-86
2021/12/14 03:59:21;;;;;;;4.35;3.53;;;;;;;2.70;89.89;100733.97;4929205;29;20205;-86
2021/12/14 04:01:49;;;;;;;19.33;6.90;;;;;;;2.83;90.16;100742.44;4928634;29;20484;-86
2021/12/14 04:04:30;;;;;;;15.52;7.35;;;;;;;2.83;90.22;100756.25;4925860;29;20249;-86
2021/12/14 04:07:00;;;;;;;9.70;5.85;;;;;;;2.80;90.12;100758.91;4928946;29;20256;-87
2021/12/14 04:09:30;;;;;;;7.80;4.60;;;;;;;2.79;89.88;100774.50;4933883;29;20257;-87
2021/12/14 04:11:56;;;;;;;7.13;5.40;;;;;;;2.77;89.79;100763.28;4926601;29;20731;-87
2021/12/14 04:14:28;;;;;;;23.05;6.70;;;;;;;2.74;89.88;100765.91;4926907;29;20202;-88
2021/12/14 04:16:56;;;;;;;12.93;6.80;;;;;;;2.61;89.79;100767.81;4925160;29;20236;-87
2021/12/14 04:19:24;;;;;;;11.45;5.50;;;;;;;2.56;89.98;100762.66;4934792;29;20206;-87
2021/12/14 04:22:01;;;;;;;19.10;7.07;;;;;;;2.51;89.77;100754.09;4935494;29;20300;-88
2021/12/14 04:24:31;;;;;;;25.38;6.97;;;;;;;2.43;89.93;100745.53;4925798;29;20722;-87
2021/12/14 04:27:00;;;;;;;20.02;6.95;;;;;;;2.37;89.81;100754.25;4919881;29;20209;-88
2021/12/14 04:29:28;;;;;;;23.02;7.20;;;;;;;2.32;89.66;100742.22;4919973;29;20206;-87
2021/12/14 04:31:57;;;;;;;31.05;9.70;;;;;;;2.25;90.14;100738.84;4922228;29;20260;-87
2021/12/14 04:34:23;;;;;;;21.13;7.80;;;;;;;2.25;90.35;100733.66;4933727;29;20205;-87
2021/12/14 04:36:53;;;;;;;13.57;6.27;;;;;;;2.24;90.59;100729.34;4913557;29;20204;-87
2021/12/14 04:39:43;;;;;;;9.02;5.53;;;;;;;2.25;90.44;100735.41;4921950;29;20468;-88
2021/12/14 04:53:38;;;;;;;9.68;5.85;;;;;;;2.30;90.88;100720.66;4941627;29;20202;-87
2021/12/14 04:56:07;;;;;;;12.68;6.70;;;;;;;2.33;90.52;100718.03;4924968;29;20209;-86
2021/12/14 04:58:40;;;;;;;31.17;8.90;;;;;;;2.34;90.42;100710.22;4932638;29;20696;-86
2021/12/14 05:01:11;;;;;;;17.50;7.53;;;;;;;2.40;90.40;100709.28;4924346;29;20492;-87
2021/12/14 05:03:51;;;;;;;20.17;6.38;;;;;;;2.40;90.82;100710.16;4925592;29;20241;-86
2021/12/14 05:06:22;;;;;;;12.57;5.38;;;;;;;2.40;90.58;100710.16;4922258;29;20232;-87
2021/12/14 05:09:24;;;;;;;13.90;5.75;;;;;;;2.39;90.52;100708.41;4924346;29;20309;-86
2021/12/14 05:12:15;;;;;;;7.50;5.35;;;;;;;2.36;90.40;100703.28;4923616;29;20667;-86
2021/12/14 05:14:54;;;;;;;9.50;6.25;;;;;;;2.37;90.86;100689.44;4923770;29;20209;-86
2021/12/14 05:17:23;;;;;;;13.98;7.05;;;;;;;2.39;90.74;100687.69;4903090;29;20812;-87
2021/12/14 05:19:52;;;;;;;15.88;6.20;;;;;;;2.39;90.36;100676.44;4923870;29;20217;-86
2021/12/14 05:22:24;;;;;;;24.17;7.40;;;;;;;2.38;90.45;100664.38;4928567;29;20696;-88
2021/12/14 05:24:53;;;;;;;9.98;6.90;;;;;;;2.38;90.44;100661.78;4928421;29;20248;-86
2021/12/14 05:27:26;;;;;;;8.07;6.35;;;;;;;2.43;90.64;100663.44;4923751;29;20208;-87
2021/12/14 05:30:05;;;;;;;13.15;7.85;;;;;;;2.52;90.60;100661.59;4921670;29;20210;-88
2021/12/14 05:32:35;;;;;;;9.07;6.57;;;;;;;2.53;90.47;100668.47;4918727;29;20202;-87
2021/12/14 05:35:01;;;;;;;11.18;6.10;;;;;;;2.52;90.39;100683.19;4922719;29;20708;-87
2021/12/14 05:37:30;;;;;;;10.35;7.25;;;;;;;2.51;90.54;100688.38;4917481;29;20564;-87
2021/12/14 05:40:03;;;;;;;10.27;7.55;;;;;;;2.52;90.51;100671.97;4938073;29;20313;-87
2021/12/14 05:45:26;;;;;;;9.60;6.65;;;;;;;2.58;90.17;100682.25;4937321;29;20247;-87
2021/12/14 05:47:58;;;;;;;7.53;6.75;;;;;;;2.52;90.39;100688.38;4921839;29;20243;-88
2021/12/14 05:50:49;;;;;;;15.25;8.52;;;;;;;2.48;90.49;100683.25;4920641;29;20208;-87
2021/12/14 05:53:29;;;;;;;44.78;8.50;;;;;;;2.52;90.43;100666.78;4920798;29;20281;-87
2021/12/14 05:55:56;;;;;;;9.43;7.47;;;;;;;2.54;90.28;100662.41;4920656;29;20205;-87
2021/12/14 05:58:24;;;;;;;16.20;8.85;;;;;;;2.54;89.99;100680.56;4920083;29;20217;-85
2021/12/14 06:00:54;;;;;;;14.45;9.90;;;;;;;2.49;90.00;100677.19;4926208;29;20481;-86
2021/12/14 06:03:30;;;;;;;15.35;10.77;;;;;;;2.50;90.20;100668.53;4930319;29;20392;-86
2021/12/14 06:05:58;;;;;;;18.52;8.75;;;;;;;2.51;90.15;100675.44;4918737;29;20328;-86
2021/12/14 06:08:32;;;;;;;11.05;8.10;;;;;;;2.42;89.74;100681.59;4921720;29;20241;-87
2021/12/14 06:11:18;;;;;;;11.00;8.02;;;;;;;2.35;89.99;100690.31;4937423;29;20594;-85
2021/12/14 06:13:47;;;;;;;15.20;8.40;;;;;;;2.31;90.15;100694.69;4920244;29;20683;-85
2021/12/14 06:16:33;;;;;;;11.65;8.05;;;;;;;2.28;90.18;100689.56;4936411;29;20214;-86
2021/12/14 06:19:32;;;;;;;19.77;7.95;;;;;;;2.30;90.23;100658.44;4935874;29;20738;-85
2021/12/14 06:22:09;;;;;;;22.95;8.27;;;;;;;2.28;90.18;100660.19;4897091;29;20577;-85
2021/12/14 06:24:38;;;;;;;17.77;9.13;;;;;;;2.26;89.88;100669.72;4919585;29;20229;-86
2021/12/14 06:27:08;;;;;;;13.43;8.57;;;;;;;2.20;90.17;100668.06;4920879;29;20316;-86
2021/12/14 06:29:39;;;;;;;14.48;10.73;;;;;;;2.22;89.98;100655.94;4921955;29;20710;-86
2021/12/14 06:32:10;;;;;;;10.98;8.35;;;;;;;2.25;90.15;100665.41;4935398;29;20215;-86
2021/12/14 06:34:42;;;;;;;16.80;9.20;;;;;;;2.25;89.82;100688.75;4933610;29;20267;-85
2021/12/14 06:37:28;;;;;;;24.23;10.57;;;;;;;2.17;89.86;100694.88;4918194;29;20205;-86
2021/12/14 06:40:06;;;;;;;19.08;9.38;;;;;;;2.14;90.06;100681.94;4936829;29;20208;-86
2021/12/14 06:42:36;;;;;;;27.95;9.73;;;;;;;2.16;90.02;100680.19;4920648;29;20213;-85
2021/12/14 06:45:16;;;;;;;18.23;10.60;;;;;;;2.20;90.37;100688.78;4917727;29;20943;-86
2021/12/14 06:47:44;;;;;;;16.55;9.35;;;;;;;2.24;90.14;100697.38;4916930;29;20248;-86
2021/12/14 06:50:15;;;;;;;25.55;11.13;;;;;;;2.26;90.08;100686.13;4915825;29;20272;-86
2021/12/14 06:52:41;;;;;;;14.23;8.23;;;;;;;2.27;90.26;100684.38;4930091;29;20201;-86
2021/12/14 06:55:34;;;;;;;22.38;8.50;;;;;;;2.30;90.06;100693.00;4930262;29;20923;-86
2021/12/14 06:58:37;;;;;;;41.03;9.65;;;;;;;2.32;90.13;100698.13;4883302;29;20223;-86
2021/12/14 07:01:33;;;;;;;18.55;9.35;;;;;;;2.40;89.77;100707.56;4918791;29;20714;-86
2021/12/14 07:04:02;;;;;;;32.58;10.93;;;;;;;2.42;89.97;100702.34;4914848;29;20297;-86
2021/12/14 07:06:37;;;;;;;13.20;8.85;;;;;;;2.42;89.91;100707.53;4939035;29;20289;-86
2021/12/14 07:09:30;;;;;;;16.33;10.10;;;;;;;2.41;89.75;100704.06;4913604;29;20245;-87
2021/12/14 07:12:03;;;;;;;14.77;8.40;;;;;;;2.41;89.77;100691.13;4930405;29;20208;-87
2021/12/14 07:14:29;;;;;;;21.65;11.25;;;;;;;2.38;89.68;100683.38;4925668;29;20206;-87
2021/12/14 07:16:57;;;;;;;19.00;9.27;;;;;;;2.32;89.67;100688.66;4948401;29;20475;-87
2021/12/14 07:20:03;;;;;;;16.08;11.02;;;;;;;2.28;89.49;100697.31;4929913;29;20465;-87
2021/12/14 07:22:47;;;;;;;17.40;11.15;;;;;;;2.26;89.76;100706.00;4930758;29;20228;-86
2021/12/14 07:25:15;;;;;;;16.35;11.38;;;;;;;2.27;90.22;100708.59;4928267;29;20221;-86
2021/12/14 07:27:56;;;;;;;23.65;13.10;;;;;;;2.30;89.96;100707.69;4930192;29;20223;-86
2021/12/14 07:30:36;;;;;;;24.95;13.82;;;;;;;2.33;89.99;100708.50;4932016;29;20275;-87
2021/12/14 07:33:19;;;;;;;18.63;13.00;;;;;;;2.39;90.05;100710.16;4928874;29;20310;-86
2021/12/14 07:35:52;;;;;;;43.08;15.63;;;;;;;2.41;89.86;100696.31;4932807;29;20200;-87
2021/12/14 07:38:52;;;;;;;22.40;13.63;;;;;;;2.44;90.00;100714.41;4932850;29;20667;-87
2021/12/14 07:41:41;;;;;;;26.95;14.68;;;;;;;2.44;90.21;100717.00;4895611;29;20377;-86
2021/12/14 07:44:15;;;;;;;28.65;13.00;;;;;;;2.47;89.96;100713.50;4920338;29;20233;-87
2021/12/14 07:46:45;;;;;;;22.25;12.73;;;;;;;2.47;89.78;100707.47;4927745;29;20283;-86
2021/12/14 07:49:35;;;;;;;22.30;13.35;;;;;;;2.48;90.24;100730.78;4927932;29;20213;-87
2021/12/14 07:52:07;;;;;;;35.17;18.55;;;;;;;2.49;90.02;100734.25;4930275;29;20478;-86
2021/12/14 07:54:37;;;;;;;36.40;19.45;;;;;;;2.51;89.78;100741.13;4935158;29;20205;-86
2021/12/14 07:57:07;;;;;;;28.83;14.38;;;;;;;2.54;89.92;100727.25;4927284;29;20615;-84
2021/12/14 07:59:37;;;;;;;21.75;13.70;;;;;;;2.56;89.96;100721.16;4934184;29;20200;-86
2021/12/14 08:02:24;;;;;;;35.97;23.25;;;;;;;2.71;90.03;100725.31;4929504;29;20501;-86
2021/12/14 08:04:53;;;;;;;26.58;14.52;;;;;;;2.72;89.61;100732.19;4941484;29;20221;-85
2021/12/14 08:07:32;;;;;;;20.13;12.80;;;;;;;2.69;89.84;100727.06;4928776;29;20230;-86
2021/12/14 08:10:19;;;;;;;25.00;12.80;;;;;;;2.68;89.89;100712.38;4929438;29;20230;-85
2021/12/14 08:12:52;;;;;;;21.67;14.13;;;;;;;2.68;89.87;100717.56;4920477;29;20202;-86
2021/12/14 08:15:29;;;;;;;21.15;14.73;;;;;;;2.71;89.94;100725.31;4932625;29;20210;-86
2021/12/14 08:18:14;;;;;;;20.33;11.75;;;;;;;2.73;89.72;100723.56;4937268;28;20738;-85
2021/12/14 08:20:47;;;;;;;20.92;13.05;;;;;;;2.78;89.76;100732.16;4928624;29;20200;-85
2021/12/14 08:23:21;;;;;;;21.27;12.52;;;;;;;2.80;89.78;100734.69;4930250;29;20572;-85
2021/12/14 08:25:48;;;;;;;21.67;13.13;;;;;;;2.78;89.47;100732.16;4930335;29;20748;-85
2021/12/14 08:28:14;;;;;;;18.92;14.13;;;;;;;2.82;89.60;100735.53;4930312;29;20753;-85
2021/12/14 08:30:43;;;;;;;25.23;13.90;;;;;;;2.86;89.25;100711.25;4932870;29;20300;-85
2021/12/14 08:33:24;;;;;;;23.60;13.60;;;;;;;2.90;89.50;100720.72;4936980;29;20349;-85
2021/12/14 08:35:50;;;;;;;27.92;13.70;;;;;;;2.94;89.51;100724.97;4928398;29;20201;-85
2021/12/14 08:38:20;;;;;;;28.05;15.27;;;;;;;2.92;89.03;100721.56;4926859;29;20233;-86
2021/12/14 08:40:58;;;;;;;23.58;14.15;;;;;;;2.92;89.59;100725.88;4928039;29;20209;-86
2021/12/14 08:43:32;;;;;;;27.35;16.95;;;;;;;2.90;89.21;100723.31;4932063;29;20276;-85
2021/12/14 08:46:09;;;;;;;23.88;13.10;;;;;;;2.92;89.48;100728.47;4936186;29;20707;-85
2021/12/14 08:48:59;;;;;;;29.65;15.55;;;;;;;2.90;89.10;100736.28;4927990;29;20201;-85
2021/12/14 08:51:44;;;;;;;23.90;14.00;;;;;;;2.88;89.24;100733.69;4914028;29;20703;-85
2021/12/14 08:54:21;;;;;;;28.55;18.23;;;;;;;2.88;89.17;100728.50;4925290;29;20565;-85
2021/12/14 08:56:55;;;;;;;29.35;16.75;;;;;;;2.89;89.12;100739.78;4933014;29;20212;-85
2021/12/14 08:59:21;;;;;;;33.72;17.35;;;;;;;2.90;89.28;100743.22;4925547;29;20240;-86
2021/12/14 09:01:48;;;;;;;37.73;20.57;;;;;;;2.83;89.34;100740.69;4930840;29;20285;-85
2021/12/14 09:04:20;;;;;;;31.65;16.80;;;;;;;2.77;89.27;100743.38;4932654;29;20957;-86
2021/12/14 09:06:50;;;;;;;29.80;15.98;;;;;;;2.72;89.24;100745.16;4927697;28;20314;-86
2021/12/14 09:09:19;;;;;;;35.35;17.20;;;;;;;2.75;89.35;100734.75;4920695;29;20651;-86
2021/12/14 09:11:49;;;;;;;33.40;17.45;;;;;;;2.78;89.35;100729.53;4920850;29;20231;-85
2021/12/14 09:14:17;;;;;;;33.15;18.35;;;;;;;2.82;89.34;100744.19;4927301;29;20233;-87
2021/12/14 09:16:47;;;;;;;27.10;16.00;;;;;;;2.87;89.37;100744.97;4931611;29;20213;-87
2021/12/14 09:19:28;;;;;;;20.75;13.60;;;;;;;2.92;89.22;100723.28;4930253;29;20395;-86
2021/12/14 09:21:56;;;;;;;21.88;14.30;;;;;;;2.93;89.40;100731.06;4927335;29;20486;-85
2021/12/14 09:24:27;;;;;;;25.58;12.10;;;;;;;2.95;88.94;100728.44;4931789;29;20221;-86
2021/12/14 09:27:04;;;;;;;23.48;14.25;;;;;;;3.00;88.82;100726.66;4933247;29;20226;-86
2021/12/14 09:29:32;;;;;;;25.70;14.40;;;;;;;3.04;88.81;100733.50;4928444;28;20679;-85
2021/12/14 09:32:00;;;;;;;23.00;12.88;;;;;;;3.07;88.90;100736.03;4929424;29;20259;-86
2021/12/14 09:34:29;;;;;;;24.25;15.52;;;;;;;3.10;88.85;100725.59;4931372;29;20631;-86
2021/12/14 09:36:58;;;;;;;27.42;14.35;;;;;;;3.16;88.72;100715.16;4928273;29;20201;-86
2021/12/14 09:39:29;;;;;;;22.20;13.50;;;;;;;3.19;88.87;100709.06;4931704;29;20217;-88
2021/12/14 09:41:57;;;;;;;24.08;14.02;;;;;;;3.23;89.02;100706.38;4926866;29;20288;-86
2021/12/14 09:44:26;;;;;;;31.27;16.67;;;;;;;3.32;88.68;100714.03;4928135;29;20241;-87
2021/12/14 09:46:55;;;;;;;27.40;14.82;;;;;;;3.39;88.51;100708.72;4933582;29;20309;-87
2021/12/14 09:49:21;;;;;;;32.10;20.27;;;;;;;3.38;88.69;100705.28;4929396;29;20668;-87
2021/12/14 09:51:58;;;;;;;33.83;20.15;;;;;;;3.36;88.44;100696.66;4932393;29;20224;-85
2021/12/14 09:54:28;;;;;;;37.10;17.90;;;;;;;3.41;88.55;100699.19;4930851;29;20489;-86
2021/12/14 09:57:02;;;;;;;26.60;15.80;;;;;;;3.46;88.44;100707.75;4919180;29;20249;-86
2021/12/14 09:59:28;;;;;;;39.97;20.15;;;;;;;3.49;88.30;100692.09;4930858;29;20225;-85
2021/12/14 10:02:02;;;;;;;30.40;19.73;;;;;;;3.54;88.16;100691.16;4935193;29;20213;-86
2021/12/14 10:04:33;;;;;;;29.48;17.27;;;;;;;3.60;88.28;100690.19;4931629;29;20291;-85
2021/12/14 10:07:03;;;;;;;26.00;15.32;;;;;;;3.61;87.99;100678.88;4928055;29;20334;-86
2021/12/14 10:09:31;;;;;;;34.97;17.90;;;;;;;3.65;88.02;100675.38;4930589;29;20238;-85
2021/12/14 10:14:42;;;;;;;31.40;17.67;;;;;;;3.73;87.79;100685.63;4931496;29;20819;-85
2021/12/14 10:17:11;;;;;;;30.42;16.42;;;;;;;3.72;88.04;100687.34;4920773;29;20691;-86
2021/12/14 10:19:37;;;;;;;29.30;17.80;;;;;;;3.71;88.09;100684.78;4926159;29;20213;-86
2021/12/14 10:22:08;;;;;;;28.25;17.55;;;;;;;3.71;87.73;100679.59;4917489;29;20518;-86
2021/12/14 10:24:35;;;;;;;33.58;17.48;;;;;;;3.73;88.11;100689.06;4920055;29;20265;-86
2021/12/14 10:27:09;;;;;;;31.83;17.38;;;;;;;3.72;87.91;100695.13;4932220;29;20389;-86
2021/12/14 10:29:39;;;;;;;29.88;16.80;;;;;;;3.69;87.90;100687.41;4931372;29;20272;-86
2021/12/14 10:32:11;;;;;;;27.90;16.15;;;;;;;3.72;87.79;100687.34;4928578;29;20209;-85
2021/12/14 10:34:49;;;;;;;27.85;16.30;;;;;;;3.82;87.86;100684.59;4939592;29;20217;-86
2021/12/14 10:37:27;;;;;;;24.27;15.95;;;;;;;3.87;87.51;100683.63;4930630;29;20212;-86
2021/12/14 10:45:28;;;;;;;22.45;14.20;;;;;;;3.89;87.29;100675.78;4926418;29;20311;-87
2021/12/14 10:47:56;;;;;;;22.70;15.10;;;;;;;3.88;87.24;100682.72;4928857;29;20223;-86
2021/12/14 10:50:25;;;;;;;22.27;14.57;;;;;;;3.83;87.19;100689.75;4926556;29;20263;-86
2021/12/14 10:52:51;;;;;;;25.35;15.02;;;;;;;3.72;87.36;100695.13;4926549;29;20267;-85
2021/12/14 10:55:42;;;;;;;25.58;16.45;;;;;;;3.71;87.43;100702.97;4935872;29;20483;-86
2021/12/14 10:58:10;;;;;;;20.92;14.60;;;;;;;3.71;87.65;100706.44;4928561;29;20205;-86
2021/12/14 11:00:56;;;;;;;28.88;16.15;;;;;;;3.69;87.63;100696.94;4928503;29;20241;-88
2021/12/14 11:03:27;;;;;;;24.67;17.08;;;;;;;3.65;87.36;100705.69;4928090;29;20731;-85
2021/12/14 11:05:57;;;;;;;35.03;15.35;;;;;;;3.59;87.85;100710.97;4930775;29;20237;-86
2021/12/14 11:11:15;;;;;;;30.38;19.75;;;;;;;3.57;88.35;100707.56;4937796;29;20211;-85
2021/12/14 11:13:46;;;;;;;24.88;17.00;;;;;;;3.57;88.10;100707.56;4935935;29;20208;-85
2021/12/14 11:16:21;;;;;;;26.30;16.02;;;;;;;3.55;87.82;100705.84;4930903;29;20209;-85
2021/12/14 11:18:48;;;;;;;31.23;21.70;;;;;;;3.60;88.11;100697.13;4946891;29;20268;-86
2021/12/14 11:21:20;;;;;;;29.48;18.15;;;;;;;3.64;88.03;100703.97;4942337;29;20253;-85
2021/12/14 11:23:48;;;;;;;31.10;17.40;;;;;;;3.63;88.16;100703.13;4948589;29;20277;-86
2021/12/14 11:26:22;;;;;;;28.92;19.08;;;;;;;3.67;87.91;100699.59;4950499;29;20197;-86
2021/12/14 11:28:57;;;;;;;26.95;16.80;;;;;;;3.71;88.01;100695.19;4936469;29;20464;-86
2021/12/14 11:31:32;;;;;;;30.40;17.73;;;;;;;3.80;88.09;100700.19;4941507;29;20207;-85
2021/12/14 11:34:09;;;;;;;37.10;20.73;;;;;;;3.87;87.84;100709.59;4945054;29;20777;-86
2021/12/14 11:36:44;;;;;;;33.08;21.77;;;;;;;3.90;87.51;100703.50;4925919;29;20212;-86
2021/12/14 11:39:22;;;;;;;37.13;19.25;;;;;;;3.90;87.47;100696.56;4931232;29;20215;-86
2021/12/14 11:41:58;;;;;;;37.38;22.35;;;;;;;3.92;87.58;100686.16;4931604;29;20303;-86
2021/12/14 11:44:35;;;;;;;34.45;20.70;;;;;;;3.96;87.49;100687.78;4928974;29;20255;-84
2021/12/14 11:47:07;;;;;;;34.97;22.13;;;;;;;4.01;87.40;100683.34;4929320;29;20528;-85
2021/12/14 11:50:08;;;;;;;36.72;21.73;;;;;;;3.98;87.45;100686.88;4929517;29;20826;-85
2021/12/14 11:52:52;;;;;;;34.15;22.50;;;;;;;3.98;87.35;100686.00;4926228;29;20219;-85
2021/12/14 11:55:20;;;;;;;29.10;18.30;;;;;;;3.96;87.07;100680.84;4932695;29;20211;-86
2021/12/14 11:57:45;;;;;;;33.90;22.20;;;;;;;3.98;87.29;100678.22;4928553;29;20662;-86
2021/12/14 12:00:17;;;;;;;31.33;20.90;;;;;;;4.00;87.42;100673.84;4934237;29;20480;-86
2021/12/14 12:02:42;;;;;;;30.23;20.27;;;;;;;4.03;87.16;100676.38;4921582;29;20312;-86
2021/12/14 12:05:21;;;;;;;37.13;21.60;;;;;;;4.05;87.08;100671.13;4934146;29;20706;-86
2021/12/14 12:10:38;;;;;;;32.33;20.70;;;;;;;4.00;86.90;100676.44;4932246;29;20269;-85
2021/12/14 12:13:04;;;;;;;34.17;21.95;;;;;;;4.00;87.37;100681.66;4934335;29;20233;-86
2021/12/14 12:15:29;;;;;;;39.17;20.90;;;;;;;4.01;87.12;100678.16;4934349;29;20306;-86
2021/12/14 12:17:59;;;;;;;33.17;22.13;;;;;;;4.03;87.24;100680.75;4927500;29;20218;-86
2021/12/14 12:20:34;;;;;;;31.50;19.92;;;;;;;4.02;86.96;100679.00;4931403;29;20519;-86
2021/12/14 12:23:14;;;;;;;24.83;18.17;;;;;;;3.97;87.04;100681.72;4934785;29;20239;-85